Time;durP1;ratioP1;P1;durP2;ratioP2;P2;SDS_P1;SDS_P2;PMS_P1;PMS_P2;Temp;Humidity;BMP_temperature;BMP_pressure;BME280_temperature;BME280_humidity;BME280_pressure;Samples;Min_cycle;Max_cycle;Signal;HPM_P1;HPM_P2
2022/04/28 00:00:28;;;;;;;16.67;7.05;;;;;;;5.77;82.52;102702.94;5352968;27;20035;-62
2022/04/28 00:03:00;;;;;;;13.90;6.43;;;;;;;5.80;83.47;102702.84;5353474;27;20023;-62
2022/04/28 00:05:31;;;;;;;12.82;6.40;;;;;;;5.75;82.55;102697.66;5346520;27;20703;-62
2022/04/28 00:08:04;;;;;;;11.70;6.68;;;;;;;5.67;83.12;102700.50;5345856;27;20026;-62
2022/04/28 00:10:36;;;;;;;13.82;5.95;;;;;;;5.73;83.39;102706.56;5351526;27;20175;-62
2022/04/28 00:13:09;;;;;;;15.18;6.82;;;;;;;5.62;83.14;102706.84;5354297;27;20035;-62
2022/04/28 00:15:40;;;;;;;15.00;6.82;;;;;;;5.58;83.01;102708.72;5344783;27;20058;-62
2022/04/28 00:18:12;;;;;;;13.10;6.30;;;;;;;5.61;83.43;102705.09;5345924;27;20042;-62
2022/04/28 00:20:43;;;;;;;11.55;6.47;;;;;;;5.61;83.82;102705.09;5346783;27;20443;-62
2022/04/28 00:23:14;;;;;;;14.63;6.88;;;;;;;5.52;83.95;102703.56;5350617;27;20105;-62
2022/04/28 00:25:45;;;;;;;12.70;6.82;;;;;;;5.54;83.86;102711.47;5349458;27;20963;-62
2022/04/28 00:28:20;;;;;;;17.10;7.22;;;;;;;5.47;83.84;102713.41;5353353;27;20053;-62
2022/04/28 00:30:51;;;;;;;17.45;6.47;;;;;;;5.47;84.20;102706.34;5354605;27;20030;-62
2022/04/28 00:33:23;;;;;;;12.63;6.80;;;;;;;5.50;84.33;102708.03;5349796;27;20023;-62
2022/04/28 00:35:55;;;;;;;14.57;6.97;;;;;;;5.44;84.41;102708.19;5346923;27;20050;-62
2022/04/28 00:38:26;;;;;;;14.38;6.80;;;;;;;5.36;84.39;102708.38;5347918;27;20031;-62
2022/04/28 00:40:58;;;;;;;15.18;6.85;;;;;;;5.36;85.55;102705.72;5346922;27;20106;-62
2022/04/28 00:43:29;;;;;;;15.70;7.15;;;;;;;5.41;85.06;102706.50;5354584;27;20034;-62
2022/04/28 00:46:01;;;;;;;15.80;7.00;;;;;;;5.33;85.33;102704.94;5351463;27;20160;-62
2022/04/28 00:51:22;;;;;;;14.70;7.03;;;;;;;5.24;85.51;102701.59;5356377;27;20574;-62
2022/04/28 00:53:54;;;;;;;14.77;7.40;;;;;;;5.28;85.44;102708.56;5351950;27;20031;-62
2022/04/28 00:56:30;;;;;;;15.63;7.45;;;;;;;5.21;85.87;102700.81;5340411;27;20641;-62
2022/04/28 00:59:02;;;;;;;14.85;7.32;;;;;;;5.19;86.70;102699.97;5353315;27;20034;-62
2022/04/28 01:01:33;;;;;;;17.08;7.50;;;;;;;5.23;87.09;102701.63;5352954;27;20636;-62
2022/04/28 01:04:06;;;;;;;15.80;7.72;;;;;;;5.15;86.77;102703.59;5349663;27;20117;-62
2022/04/28 01:06:40;;;;;;;14.13;7.35;;;;;;;5.15;86.20;102693.88;5342404;27;20053;-62
2022/04/28 01:09:11;;;;;;;14.75;7.22;;;;;;;5.07;86.37;102701.16;5345682;27;20512;-62
2022/04/28 01:11:44;;;;;;;15.60;7.13;;;;;;;5.07;86.77;102701.16;5346594;27;20034;-62
2022/04/28 01:14:15;;;;;;;15.65;7.22;;;;;;;5.01;86.53;102703.94;5350222;27;20027;-62
2022/04/28 01:16:46;;;;;;;11.25;6.63;;;;;;;5.06;87.28;102707.31;5347747;27;20027;-62
2022/04/28 01:19:18;;;;;;;17.95;7.30;;;;;;;5.01;86.90;102712.72;5345777;27;20054;-61
2022/04/28 01:21:50;;;;;;;14.00;7.13;;;;;;;4.90;86.58;102702.38;5342608;27;20038;-62
2022/04/28 01:24:21;;;;;;;14.75;7.68;;;;;;;4.97;87.09;102713.72;5347246;27;20045;-62
2022/04/28 01:26:54;;;;;;;16.63;7.85;;;;;;;4.99;88.57;102705.75;5350541;27;20026;-62
2022/04/28 01:29:26;;;;;;;14.80;7.30;;;;;;;4.90;88.05;102712.97;5352428;27;20137;-62
2022/04/28 01:31:57;;;;;;;15.18;7.20;;;;;;;4.95;87.69;102712.00;5350391;27;20061;-62
2022/04/28 01:34:29;;;;;;;15.65;7.30;;;;;;;4.82;87.67;102717.56;5349658;27;20039;-62
2022/04/28 01:37:00;;;;;;;13.02;8.13;;;;;;;4.78;88.39;102707.97;5344668;27;20027;-62
2022/04/28 01:39:31;;;;;;;19.70;7.93;;;;;;;4.77;88.58;102710.63;5348323;27;20510;-62
2022/04/28 01:42:05;;;;;;;15.25;8.48;;;;;;;4.74;88.41;102716.88;5349716;27;20029;-62
2022/04/28 01:44:36;;;;;;;12.32;7.30;;;;;;;4.80;89.02;102714.09;5344046;27;20392;-62
2022/04/28 01:47:08;;;;;;;12.63;7.20;;;;;;;4.76;88.77;102704.50;5347890;27;20125;-62
2022/04/28 01:49:39;;;;;;;17.15;8.27;;;;;;;4.69;88.80;102703.72;5345748;27;20608;-62
2022/04/28 01:55:00;;;;;;;13.77;7.15;;;;;;;4.67;89.25;102707.31;5342785;27;20408;-62
2022/04/28 01:57:31;;;;;;;14.40;7.70;;;;;;;4.63;89.14;102703.88;5347617;27;20015;-62
2022/04/28 02:00:04;;;;;;;19.20;7.68;;;;;;;4.59;89.22;102710.13;5348148;27;20031;-62
2022/04/28 02:02:36;;;;;;;14.52;7.90;;;;;;;4.58;89.78;102712.81;5351892;27;20031;-62
2022/04/28 02:05:08;;;;;;;15.05;7.82;;;;;;;4.54;89.89;102708.50;5345971;27;20111;-62
2022/04/28 02:07:39;;;;;;;19.73;8.15;;;;;;;4.50;89.82;102711.19;5347403;27;20019;-62
2022/04/28 02:10:11;;;;;;;19.70;8.60;;;;;;;4.49;90.07;102711.25;5346782;27;20026;-62
2022/04/28 02:12:42;;;;;;;20.00;8.52;;;;;;;4.52;90.40;102713.81;5348473;27;20099;-62
2022/04/28 02:15:14;;;;;;;16.83;7.95;;;;;;;4.44;90.15;102710.47;5347431;27;20487;-62
2022/04/28 02:17:45;;;;;;;16.52;8.02;;;;;;;4.48;90.27;102713.00;5345128;27;20575;-63
2022/04/28 02:20:16;;;;;;;18.15;8.50;;;;;;;4.39;89.85;102713.22;5344232;27;20031;-62
2022/04/28 02:22:47;;;;;;;13.48;7.80;;;;;;;4.41;90.48;102718.44;5349750;27;20556;-62
2022/04/28 02:25:19;;;;;;;16.27;7.82;;;;;;;4.44;91.31;102719.25;5343270;27;20101;-62
2022/04/28 02:27:50;;;;;;;16.80;7.97;;;;;;;4.37;90.96;102712.34;5350784;27;20468;-62
2022/04/28 02:30:22;;;;;;;16.13;8.30;;;;;;;4.42;90.92;102715.78;5351942;27;20110;-62
2022/04/28 02:33:14;;;;;;;17.63;8.20;;;;;;;4.37;91.74;102708.84;5349590;27;20034;-62
2022/04/28 02:35:45;;;;;;;14.40;8.18;;;;;;;4.38;91.38;102707.94;5347502;27;20046;-62
2022/04/28 02:38:16;;;;;;;14.85;8.05;;;;;;;4.41;91.63;102708.75;5348053;27;20122;-62
2022/04/28 02:40:47;;;;;;;17.42;8.13;;;;;;;4.42;91.91;102710.50;5348933;27;20472;-62
2022/04/28 02:43:19;;;;;;;17.50;9.18;;;;;;;4.38;91.66;102706.16;5339857;27;20149;-62
2022/04/28 02:45:50;;;;;;;22.02;7.88;;;;;;;4.35;91.59;102706.22;5346019;27;20080;-62
2022/04/28 02:48:22;;;;;;;16.02;8.95;;;;;;;4.34;91.87;102696.56;5349892;27;20042;-62
2022/04/28 02:50:53;;;;;;;15.93;8.15;;;;;;;4.36;91.02;102705.34;5343657;27;20555;-62
2022/04/28 02:53:24;;;;;;;19.20;8.65;;;;;;;4.29;91.12;102701.06;5350689;27;20038;-62
2022/04/28 02:55:56;;;;;;;15.95;8.73;;;;;;;4.28;91.76;102699.34;5348097;27;20117;-62
2022/04/28 02:58:27;;;;;;;15.32;8.13;;;;;;;4.31;92.13;102707.19;5345037;27;20026;-62
2022/04/28 03:00:58;;;;;;;16.40;8.43;;;;;;;4.26;91.93;102707.28;5345444;27;20041;-62
2022/04/28 03:03:30;;;;;;;19.50;8.90;;;;;;;4.31;91.24;102705.44;5350060;27;20030;-62
2022/04/28 03:11:41;;;;;;;18.35;9.02;;;;;;;4.36;91.48;102705.34;5346755;27;20038;-62
2022/04/28 03:14:13;;;;;;;20.95;9.75;;;;;;;4.25;91.75;102704.69;5346743;27;20440;-62
2022/04/28 03:16:44;;;;;;;18.23;8.88;;;;;;;4.33;91.43;102708.03;5344189;27;20801;-62
2022/04/28 03:19:16;;;;;;;20.10;8.75;;;;;;;4.28;92.22;102708.13;5341009;27;20423;-62
2022/04/28 03:21:47;;;;;;;18.27;8.77;;;;;;;4.25;91.47;102702.91;5353059;27;20133;-62
2022/04/28 03:24:18;;;;;;;17.35;8.90;;;;;;;4.28;92.91;102707.28;5340548;27;20389;-62
2022/04/28 03:26:49;;;;;;;16.27;8.63;;;;;;;4.23;92.52;102701.19;5346655;27;20039;-62
2022/04/28 03:29:21;;;;;;;19.13;9.50;;;;;;;4.22;92.32;102697.69;5348902;27;20034;-62
2022/04/28 03:31:52;;;;;;;18.58;9.65;;;;;;;4.22;92.54;102702.97;5349895;27;20023;-62
2022/04/28 03:34:24;;;;;;;17.83;9.23;;;;;;;4.12;92.17;102698.75;5352852;27;20061;-62
2022/04/28 03:36:56;;;;;;;17.00;8.80;;;;;;;4.19;92.08;102710.09;5348848;27;20782;-62
2022/04/28 03:39:28;;;;;;;19.27;9.23;;;;;;;4.20;92.34;102709.19;5350895;27;20027;-62
2022/04/28 03:41:59;;;;;;;16.20;9.27;;;;;;;4.20;92.20;102712.72;5346713;27;20138;-62
2022/04/28 03:44:30;;;;;;;17.27;9.10;;;;;;;4.18;92.32;102708.34;5349479;27;20030;-62
2022/04/28 03:47:03;;;;;;;17.98;8.88;;;;;;;4.20;92.13;102711.81;5346299;27;20054;-62
2022/04/28 03:49:34;;;;;;;20.20;9.60;;;;;;;4.17;92.44;102706.59;5354685;27;20109;-62
2022/04/28 03:52:06;;;;;;;18.08;9.52;;;;;;;4.20;92.86;102709.19;5348925;27;20057;-62
2022/04/28 03:54:37;;;;;;;18.92;9.60;;;;;;;4.16;92.53;102712.78;5348167;27;20039;-62
2022/04/28 03:57:08;;;;;;;22.15;10.10;;;;;;;4.22;92.87;102715.28;5348801;27;20391;-62
2022/04/28 03:59:39;;;;;;;18.38;9.65;;;;;;;4.09;92.59;102714.69;5348231;27;20034;-62
2022/04/28 04:02:11;;;;;;;13.50;9.02;;;;;;;4.05;92.31;102727.06;5353768;27;20038;-62
2022/04/28 04:04:42;;;;;;;18.55;9.68;;;;;;;4.04;93.56;102721.81;5352569;27;20425;-62
2022/04/28 04:07:14;;;;;;;22.30;9.90;;;;;;;3.95;92.90;102721.97;5350534;27;20015;-62
2022/04/28 04:09:45;;;;;;;20.58;9.10;;;;;;;3.94;92.87;102726.41;5353476;27;20473;-62
2022/04/28 04:12:16;;;;;;;15.57;9.77;;;;;;;4.01;93.06;102722.75;5353132;27;20030;-62
2022/04/28 04:14:47;;;;;;;19.02;9.25;;;;;;;3.95;93.33;102716.69;5353383;27;20027;-62
2022/04/28 04:17:19;;;;;;;19.80;10.00;;;;;;;3.92;93.48;102725.56;5347121;27;20081;-62
2022/04/28 04:19:51;;;;;;;20.70;11.05;;;;;;;3.88;93.62;102723.88;5353353;27;20053;-62
2022/04/28 04:22:22;;;;;;;18.02;9.80;;;;;;;3.92;93.85;102721.13;5350705;27;20031;-62
2022/04/28 04:24:53;;;;;;;19.95;10.45;;;;;;;3.95;94.17;102728.16;5352837;27;20037;-62
2022/04/28 04:27:24;;;;;;;18.73;10.60;;;;;;;3.87;93.71;102727.41;5355410;27;20142;-62
2022/04/28 04:29:56;;;;;;;22.77;10.82;;;;;;;3.83;93.95;102728.38;5353924;27;20046;-62
2022/04/28 04:32:27;;;;;;;22.02;11.30;;;;;;;3.92;94.10;102733.47;5350930;27;20034;-62
2022/04/28 04:34:59;;;;;;;19.30;10.40;;;;;;;3.83;94.47;102720.44;5355426;27;20460;-62
2022/04/28 04:37:30;;;;;;;18.08;10.02;;;;;;;3.84;94.38;102730.97;5350839;27;20082;-62
2022/04/28 04:40:01;;;;;;;22.48;10.60;;;;;;;3.91;94.92;102729.09;5357392;27;20159;-62
2022/04/28 04:42:32;;;;;;;19.40;10.55;;;;;;;3.91;95.44;102737.00;5353102;27;20034;-62
2022/04/28 04:45:09;;;;;;;18.98;10.48;;;;;;;3.89;95.25;102733.53;5356875;27;20346;-62
2022/04/28 04:47:40;;;;;;;19.98;11.02;;;;;;;3.86;95.14;102733.59;5353013;27;20035;-62
2022/04/28 04:50:11;;;;;;;20.63;11.00;;;;;;;3.92;94.89;102747.56;5355221;27;20042;-62
2022/04/28 04:52:42;;;;;;;23.58;11.27;;;;;;;3.92;94.63;102751.97;5353648;27;20049;-62
2022/04/28 04:55:14;;;;;;;25.17;11.45;;;;;;;3.90;95.08;102745.84;5354365;27;20105;-62
2022/04/28 04:57:45;;;;;;;23.63;11.35;;;;;;;3.95;94.75;102743.09;5357589;27;20476;-62
2022/04/28 05:00:16;;;;;;;20.10;10.05;;;;;;;3.96;94.53;102752.78;5349287;27;20069;-62
2022/04/28 05:02:48;;;;;;;19.17;10.73;;;;;;;4.02;95.37;102748.25;5354886;27;20415;-62
2022/04/28 05:05:19;;;;;;;25.40;11.63;;;;;;;4.02;95.48;102750.88;5353861;27;20031;-62
2022/04/28 05:07:50;;;;;;;21.63;10.43;;;;;;;4.05;95.42;102755.28;5354032;27;20029;-62
2022/04/28 05:10:21;;;;;;;21.75;12.07;;;;;;;4.06;96.44;102752.56;5347916;27;20041;-62
2022/04/28 05:12:52;;;;;;;20.95;11.57;;;;;;;4.04;95.72;102761.44;5360773;27;20037;-62
2022/04/28 05:15:24;;;;;;;24.52;12.25;;;;;;;4.12;96.29;102773.63;5348307;27;20133;-62
2022/04/28 05:17:55;;;;;;;21.20;11.93;;;;;;;4.10;95.68;102770.13;5352617;27;20408;-62
2022/04/28 05:20:26;;;;;;;24.45;11.23;;;;;;;4.20;96.15;102777.88;5357749;27;20027;-62
2022/04/28 05:22:58;;;;;;;22.63;10.77;;;;;;;4.22;96.24;102776.06;5354855;27;20039;-62
2022/04/28 05:25:29;;;;;;;22.60;12.05;;;;;;;4.22;96.13;102782.25;5359591;27;20388;-62
2022/04/28 05:28:00;;;;;;;21.75;10.73;;;;;;;4.25;96.07;102776.88;5357082;27;20633;-62
2022/04/28 05:30:32;;;;;;;22.75;11.85;;;;;;;4.34;96.92;102778.50;5352389;27;20060;-61
2022/04/28 05:33:03;;;;;;;22.77;11.90;;;;;;;4.32;95.85;102783.78;5356225;27;20018;-62
2022/04/28 05:35:37;;;;;;;21.02;11.75;;;;;;;4.35;96.09;102785.50;5362141;27;20075;-61
2022/04/28 05:38:09;;;;;;;22.27;12.40;;;;;;;4.49;97.15;102779.97;5358831;27;20649;-62
2022/04/28 05:40:41;;;;;;;22.27;12.32;;;;;;;4.51;96.08;102789.59;5357172;27;20410;-61
2022/04/28 05:46:03;;;;;;;22.77;12.80;;;;;;;4.58;95.18;102789.47;5356175;27;20447;-62
2022/04/28 05:48:34;;;;;;;24.45;12.93;;;;;;;4.63;95.03;102798.19;5357316;27;20349;-61
2022/04/28 05:51:06;;;;;;;23.17;11.95;;;;;;;4.68;95.24;102802.50;5357815;27;20027;-61
2022/04/28 05:53:41;;;;;;;22.70;12.35;;;;;;;4.72;94.66;102804.16;5340828;27;20034;-61
2022/04/28 05:56:12;;;;;;;28.33;12.82;;;;;;;4.84;95.49;102803.03;5336791;27;20392;-61
2022/04/28 05:58:43;;;;;;;24.77;12.98;;;;;;;4.90;95.43;102810.84;5342115;27;20412;-61
2022/04/28 06:01:15;;;;;;;24.63;13.63;;;;;;;4.98;96.80;102809.81;5343451;27;20035;-61
2022/04/28 06:03:46;;;;;;;23.75;13.10;;;;;;;5.02;95.60;102808.84;5340739;27;20466;-61
2022/04/28 06:06:17;;;;;;;20.65;13.10;;;;;;;5.08;94.91;102811.34;5343213;27;20046;-61
2022/04/28 06:08:48;;;;;;;26.38;13.23;;;;;;;5.15;94.86;102818.25;5345827;27;20018;-61
2022/04/28 06:11:20;;;;;;;29.00;14.18;;;;;;;5.20;94.28;102816.38;5340989;27;20035;-61
2022/04/28 06:13:51;;;;;;;25.17;13.40;;;;;;;5.25;94.36;102825.09;5344880;27;20235;-62
2022/04/28 06:16:23;;;;;;;21.52;12.80;;;;;;;5.34;93.79;102820.50;5343563;27;20040;-61
2022/04/28 06:18:54;;;;;;;25.00;13.75;;;;;;;5.42;94.01;102829.13;5345181;27;20616;-61
2022/04/28 06:21:25;;;;;;;26.15;13.00;;;;;;;5.48;93.07;102828.97;5343412;27;20499;-61
2022/04/28 06:23:56;;;;;;;22.35;12.88;;;;;;;5.55;92.59;102832.38;5341155;27;20464;-61
2022/04/28 06:26:29;;;;;;;28.90;13.60;;;;;;;5.63;93.60;102827.75;5344664;27;20066;-61
2022/04/28 06:29:00;;;;;;;23.48;12.95;;;;;;;5.69;92.84;102839.09;5344162;27;20035;-61
2022/04/28 06:31:31;;;;;;;25.08;12.40;;;;;;;5.80;92.46;102846.75;5344151;27;20015;-61
2022/04/28 06:34:02;;;;;;;25.75;13.07;;;;;;;5.93;92.09;102830.56;5344942;27;20145;-62
2022/04/28 06:36:37;;;;;;;22.27;12.73;;;;;;;6.02;91.48;102839.19;5341548;27;20042;-62
2022/04/28 06:39:09;;;;;;;26.92;11.98;;;;;;;6.11;91.22;102842.50;5345059;27;20073;-62
2022/04/28 06:41:40;;;;;;;27.48;12.93;;;;;;;6.22;90.37;102840.47;5342434;27;20359;-61
2022/04/28 06:44:11;;;;;;;20.77;13.32;;;;;;;6.31;90.28;102837.56;5338605;27;20042;-61
2022/04/28 06:46:42;;;;;;;29.55;13.52;;;;;;;6.42;89.84;102843.47;5339921;27;20042;-61
2022/04/28 06:49:14;;;;;;;22.73;11.98;;;;;;;6.53;88.70;102839.63;5325412;27;20465;-61
2022/04/28 06:51:45;;;;;;;21.50;11.80;;;;;;;6.61;88.36;102838.50;5341623;27;20062;-62
2022/04/28 06:54:16;;;;;;;22.30;13.73;;;;;;;6.76;89.38;102834.53;5341672;27;20030;-62
2022/04/28 06:56:48;;;;;;;20.02;12.10;;;;;;;6.86;87.52;102838.69;5345288;27;20026;-61
2022/04/28 06:59:20;;;;;;;22.10;11.40;;;;;;;7.02;87.51;102847.06;5344833;27;20106;-61
2022/04/28 07:01:51;;;;;;;20.65;11.60;;;;;;;7.09;86.88;102850.41;5345665;27;20110;-62
2022/04/28 07:04:23;;;;;;;22.52;11.75;;;;;;;7.27;86.30;102856.97;5341341;27;20057;-62
2022/04/28 07:06:54;;;;;;;22.83;12.13;;;;;;;7.42;84.83;102861.81;5349840;27;20362;-64
2022/04/28 07:09:26;;;;;;;23.50;11.60;;;;;;;7.51;84.39;102860.63;5342205;27;20481;-62
2022/04/28 07:11:57;;;;;;;21.15;12.45;;;;;;;7.65;86.01;102863.75;5344971;27;20052;-62
2022/04/28 07:14:28;;;;;;;22.65;11.63;;;;;;;7.81;84.02;102868.56;5344773;27;20065;-62
2022/04/28 07:16:59;;;;;;;21.33;11.65;;;;;;;7.88;83.75;102874.53;5342438;27;20031;-62
2022/04/28 07:19:31;;;;;;;18.33;10.73;;;;;;;7.99;83.12;102877.72;5345401;27;20055;-62
2022/04/28 07:22:05;;;;;;;24.67;11.27;;;;;;;8.14;81.52;102879.88;5344444;27;20031;-62
2022/04/28 07:24:36;;;;;;;24.17;11.32;;;;;;;8.27;82.08;102883.00;5326628;27;20156;-62
2022/04/28 07:27:08;;;;;;;21.00;11.27;;;;;;;8.41;79.70;102887.81;5327641;27;20125;-62
2022/04/28 07:29:40;;;;;;;21.73;11.20;;;;;;;8.52;78.69;102884.84;5342241;27;20031;-62
2022/04/28 07:32:11;;;;;;;20.58;10.57;;;;;;;8.56;77.48;102890.00;5342384;27;20534;-62
2022/04/28 07:34:42;;;;;;;20.17;10.13;;;;;;;8.64;77.37;102893.25;5343562;27;20075;-61
2022/04/28 07:37:13;;;;;;;16.33;10.57;;;;;;;8.74;77.94;102892.91;5344239;27;20027;-62
2022/04/28 07:39:45;;;;;;;21.17;10.75;;;;;;;8.84;78.16;102886.34;5342398;27;20031;-62
2022/04/28 07:42:16;;;;;;;19.70;11.18;;;;;;;8.99;77.49;102895.56;5345741;27;20045;-62
2022/04/28 07:44:47;;;;;;;21.33;10.68;;;;;;;9.10;76.45;102889.84;5344330;27;20106;-61
2022/04/28 07:47:19;;;;;;;20.10;9.85;;;;;;;9.23;76.46;102899.09;5342224;27;20027;-61
2022/04/28 07:49:50;;;;;;;19.48;10.30;;;;;;;9.44;75.73;102897.41;5343849;27;20062;-62
2022/04/28 07:52:22;;;;;;;20.70;10.85;;;;;;;9.40;74.25;102902.00;5343234;27;20510;-61
2022/04/28 07:54:53;;;;;;;22.25;10.52;;;;;;;9.52;74.00;102910.44;5340915;27;20492;-61
2022/04/28 07:57:25;;;;;;;20.27;9.63;;;;;;;9.60;73.28;102905.66;5345441;27;20595;-62
2022/04/28 07:59:56;;;;;;;19.85;9.68;;;;;;;9.83;73.47;102902.09;5346230;27;20522;-61
2022/04/28 08:02:29;;;;;;;20.65;10.07;;;;;;;9.89;73.03;102901.84;5340518;27;20062;-62
2022/04/28 08:05:00;;;;;;;19.98;9.68;;;;;;;9.89;72.67;102912.50;5344031;27;20113;-62
2022/04/28 08:07:33;;;;;;;17.75;9.05;;;;;;;10.07;70.96;102918.00;5324464;27;20470;-62
2022/04/28 08:10:04;;;;;;;22.20;9.68;;;;;;;10.18;70.89;102919.34;5346906;27;20062;-62
2022/04/28 08:12:36;;;;;;;20.25;10.18;;;;;;;10.23;69.86;102915.59;5344488;27;20531;-62
2022/04/28 08:15:07;;;;;;;19.48;9.27;;;;;;;10.30;70.17;102917.97;5345952;27;20066;-62
2022/04/28 08:17:39;;;;;;;25.90;9.13;;;;;;;10.48;69.64;102926.13;5347126;27;20079;-62
2022/04/28 08:20:10;;;;;;;21.85;9.82;;;;;;;10.55;68.62;102923.13;5349705;27;20381;-62
2022/04/28 08:22:41;;;;;;;22.17;9.52;;;;;;;10.60;69.12;102922.91;5348759;27;20031;-62
2022/04/28 08:25:13;;;;;;;19.30;9.73;;;;;;;10.70;70.21;102918.94;5349300;27;20065;-62
2022/04/28 08:27:44;;;;;;;16.30;8.55;;;;;;;10.82;70.32;102924.69;5349790;27;20027;-62
2022/04/28 08:30:15;;;;;;;19.33;9.10;;;;;;;10.91;68.56;102924.25;5348753;27;20031;-62
2022/04/28 08:32:47;;;;;;;17.92;9.70;;;;;;;10.93;66.84;102939.28;5348758;27;20167;-62
2022/04/28 08:35:18;;;;;;;16.33;8.95;;;;;;;11.01;65.82;102932.72;5348815;27;20039;-62
2022/04/28 08:37:49;;;;;;;19.13;9.63;;;;;;;11.06;66.43;102930.72;5349672;27;20031;-62
2022/04/28 08:40:21;;;;;;;17.52;9.80;;;;;;;11.11;66.59;102928.72;5348905;27;20031;-64
2022/04/28 08:42:52;;;;;;;17.90;9.20;;;;;;;11.15;66.45;102941.00;5346156;27;20034;-62
2022/04/28 08:45:28;;;;;;;19.05;9.38;;;;;;;11.28;65.70;102943.97;5348219;27;20035;-62
2022/04/28 08:48:01;;;;;;;19.25;9.75;;;;;;;11.38;64.34;102929.25;5350682;27;20029;-62
2022/04/28 08:50:32;;;;;;;18.83;8.80;;;;;;;11.34;63.49;102927.66;5348445;27;20034;-62
2022/04/28 08:53:05;;;;;;;14.70;9.25;;;;;;;11.43;63.88;102931.69;5348111;27;20536;-62
2022/04/28 08:55:36;;;;;;;15.13;8.82;;;;;;;11.51;63.10;102930.41;5348860;27;20027;-62
2022/04/28 08:58:08;;;;;;;16.67;9.68;;;;;;;11.57;63.67;102924.75;5348600;27;20511;-62
2022/04/28 09:00:39;;;;;;;19.35;10.15;;;;;;;11.73;66.01;102937.41;5347627;27;20038;-62
2022/04/28 09:03:11;;;;;;;19.25;10.02;;;;;;;11.77;63.64;102938.97;5347111;27;20038;-62
2022/04/28 09:05:43;;;;;;;14.80;9.65;;;;;;;11.82;63.18;102933.44;5350235;27;20070;-62
2022/04/28 09:08:18;;;;;;;19.08;9.55;;;;;;;11.96;64.26;102936.31;5347067;27;20047;-62
2022/04/28 09:10:49;;;;;;;18.98;9.65;;;;;;;11.94;62.01;102936.38;5350411;27;20764;-62
2022/04/28 09:16:10;;;;;;;18.80;9.85;;;;;;;11.93;62.45;102929.31;5347678;27;20050;-62
2022/04/28 09:18:41;;;;;;;18.98;10.48;;;;;;;12.03;61.50;102920.84;5346625;27;20043;-62
2022/04/28 09:21:13;;;;;;;21.10;10.27;;;;;;;12.19;61.60;102923.63;5347002;27;20062;-62
2022/04/28 09:23:44;;;;;;;20.98;9.85;;;;;;;12.36;62.20;102920.97;5348916;27;20107;-62
2022/04/28 09:26:15;;;;;;;21.25;9.85;;;;;;;12.35;60.66;102924.59;5348334;27;20440;-62
2022/04/28 09:28:47;;;;;;;21.40;10.20;;;;;;;12.36;58.96;102919.13;5348453;27;20391;-62
2022/04/28 09:31:18;;;;;;;16.35;9.80;;;;;;;12.44;59.34;102915.22;5349360;27;20035;-62
2022/04/28 09:33:50;;;;;;;19.45;9.85;;;;;;;12.50;59.35;102918.47;5345938;27;20124;-62
2022/04/28 09:36:21;;;;;;;19.52;10.20;;;;;;;12.44;57.77;102918.75;5348019;27;20031;-62
2022/04/28 09:38:53;;;;;;;17.98;10.20;;;;;;;12.36;58.16;102921.81;5348244;27;20023;-62
2022/04/28 09:44:16;;;;;;;18.45;9.93;;;;;;;12.51;58.69;102919.31;5347483;27;20439;-62
2022/04/28 09:46:48;;;;;;;17.38;9.88;;;;;;;12.48;59.58;102906.97;5345291;27;20022;-62
2022/04/28 09:49:23;;;;;;;16.60;9.70;;;;;;;12.64;58.20;102915.06;5347395;27;20056;-62
2022/04/28 09:51:57;;;;;;;14.75;9.30;;;;;;;12.74;59.04;102918.97;5348929;27;20030;-62
2022/04/28 09:54:35;;;;;;;16.08;9.38;;;;;;;12.66;57.66;102913.16;5346261;27;20495;-62
2022/04/28 09:57:08;;;;;;;17.42;8.93;;;;;;;12.77;57.24;102907.25;5345264;27;20031;-62
2022/04/28 09:59:40;;;;;;;14.90;9.38;;;;;;;12.84;56.29;102903.28;5346382;27;20027;-62
2022/04/28 10:02:15;;;;;;;18.05;9.07;;;;;;;13.04;56.47;102912.06;5349215;27;20075;-62
2022/04/28 10:04:48;;;;;;;15.43;9.70;;;;;;;13.13;54.94;102915.13;5346439;27;20109;-62
2022/04/28 10:07:22;;;;;;;14.95;8.32;;;;;;;13.27;54.37;102905.44;5346412;27;20030;-62
2022/04/28 10:09:53;;;;;;;14.23;8.95;;;;;;;13.26;54.94;102901.91;5345259;27;20080;-62
2022/04/28 10:12:25;;;;;;;17.25;8.70;;;;;;;13.11;53.47;102890.19;5345237;27;20043;-62
2022/04/28 10:14:59;;;;;;;15.52;8.63;;;;;;;13.09;53.59;102894.78;5349215;27;20117;-62
2022/04/28 10:17:39;;;;;;;15.13;8.52;;;;;;;12.99;54.46;102893.56;5345299;27;20425;-62
2022/04/28 10:20:19;;;;;;;17.23;8.95;;;;;;;13.09;53.79;102900.16;5345946;27;20050;-62
2022/04/28 10:22:52;;;;;;;12.60;7.97;;;;;;;13.17;54.45;102894.38;5347875;27;20079;-62
2022/04/28 10:34:14;;;;;;;16.83;8.95;;;;;;;13.21;53.20;102889.72;5346088;27;20063;-62
2022/04/28 10:36:56;;;;;;;15.15;9.88;;;;;;;13.18;53.45;102892.56;5347655;27;20074;-62
2022/04/28 10:39:32;;;;;;;13.13;8.73;;;;;;;13.39;54.34;102893.25;5347230;27;20060;-63
2022/04/28 10:42:12;;;;;;;18.25;9.13;;;;;;;13.34;55.19;102888.13;5346263;27;20416;-62
2022/04/28 10:44:56;;;;;;;13.85;9.07;;;;;;;13.42;54.11;102888.53;5346837;27;20031;-63
2022/04/28 10:47:36;;;;;;;13.13;8.68;;;;;;;13.44;53.53;102884.00;5344534;27;20091;-62
2022/04/28 10:50:29;;;;;;;14.23;8.43;;;;;;;13.51;52.67;102884.50;5343011;27;20552;-62
2022/04/28 10:53:03;;;;;;;14.27;9.52;;;;;;;13.38;52.70;102870.91;5346190;27;20071;-62
2022/04/28 10:55:41;;;;;;;;;;;;;;;13.43;53.65;102882.25;5348316;27;20026;-63
2022/04/28 10:58:21;;;;;;;14.30;9.25;;;;;;;13.41;53.15;102876.09;5344687;27;19919;-63
2022/04/28 11:01:04;;;;;;;15.57;9.60;;;;;;;13.56;53.58;102878.84;5346371;27;20426;-62
2022/04/28 11:03:57;;;;;;;17.08;9.85;;;;;;;13.68;53.89;102873.66;5345133;27;20033;-62
2022/04/28 11:06:30;;;;;;;16.27;9.52;;;;;;;13.85;53.19;102872.69;5345786;27;20485;-61
2022/04/28 11:09:04;;;;;;;15.98;9.48;;;;;;;13.97;53.17;102875.63;5346852;27;20046;-62
2022/04/28 11:11:47;;;;;;;14.20;9.38;;;;;;;13.92;53.07;102881.25;5341450;27;20491;-64
2022/04/28 11:14:20;;;;;;;13.45;8.70;;;;;;;14.05;54.86;102868.84;5346699;27;20058;-62
2022/04/28 11:16:51;;;;;;;16.02;9.77;;;;;;;14.07;52.52;102868.75;5343783;27;20025;-62
2022/04/28 11:19:23;;;;;;;14.13;9.38;;;;;;;14.08;52.53;102870.50;5342359;27;20042;-62
2022/04/28 11:21:55;;;;;;;14.88;9.52;;;;;;;14.20;53.23;102860.84;5343274;27;20026;-62
2022/04/28 11:24:27;;;;;;;18.25;10.15;;;;;;;14.10;51.40;102873.97;5339410;27;20030;-62
2022/04/28 11:26:59;;;;;;;14.13;8.60;;;;;;;14.39;53.24;102857.94;5343722;27;20022;-62
2022/04/28 11:29:31;;;;;;;16.23;9.45;;;;;;;14.41;53.52;102853.31;5341292;27;20023;-61
2022/04/28 11:32:02;;;;;;;15.65;10.45;;;;;;;14.42;52.23;102857.72;5344785;27;20023;-62
2022/04/28 11:34:34;;;;;;;15.38;9.70;;;;;;;14.44;52.18;102859.38;5345411;27;20023;-62
2022/04/28 11:37:21;;;;;;;16.02;9.77;;;;;;;14.45;51.41;102853.03;5343972;27;20035;-62
2022/04/28 11:39:54;;;;;;;16.77;10.43;;;;;;;14.58;50.87;102858.56;5351615;27;20028;-62
2022/04/28 11:42:26;;;;;;;17.30;10.65;;;;;;;14.22;52.25;102851.72;5342199;27;20038;-62
2022/04/28 11:44:59;;;;;;;16.88;10.35;;;;;;;14.33;52.06;102856.47;5345249;27;20039;-62
2022/04/28 11:47:30;;;;;;;16.13;9.73;;;;;;;14.51;53.41;102851.78;5343542;27;20030;-62
2022/04/28 11:50:02;;;;;;;14.18;9.68;;;;;;;14.62;50.96;102848.50;5344587;27;20027;-62
2022/04/28 11:52:35;;;;;;;17.13;10.88;;;;;;;14.77;50.20;102857.44;5344944;27;20026;-62
2022/04/28 11:55:08;;;;;;;15.57;10.68;;;;;;;14.57;49.39;102850.59;5347699;27;20089;-62
2022/04/28 11:57:39;;;;;;;14.63;10.82;;;;;;;14.78;50.38;102857.31;5347110;27;20032;-62
2022/04/28 12:00:12;;;;;;;16.80;10.73;;;;;;;14.61;50.33;102849.44;5328272;27;20030;-62
2022/04/28 12:02:44;;;;;;;17.90;10.80;;;;;;;14.65;50.29;102849.19;5347593;27;20346;-62
2022/04/28 12:05:22;;;;;;;18.35;11.63;;;;;;;14.66;51.21;102844.66;5346948;27;20034;-62
2022/04/28 12:07:54;;;;;;;14.95;9.82;;;;;;;14.79;50.03;102834.00;5350807;27;20031;-62
2022/04/28 12:16:18;;;;;;;19.55;11.60;;;;;;;14.88;50.35;102841.47;5347762;27;20118;-62